createdAt,value
2018-05-18T00:01:50.046Z,13.50
2018-05-18T00:04:16.374Z,13.50
2018-05-18T00:06:42.689Z,13.50
2018-05-18T00:09:09.298Z,13.60
2018-05-18T00:11:35.719Z,13.50
2018-05-18T00:14:02.093Z,13.40
2018-05-18T00:16:28.437Z,13.30
2018-05-18T00:18:54.792Z,13.20
2018-05-18T00:21:21.117Z,13.20
2018-05-18T00:23:48.197Z,13.10
2018-05-18T00:26:14.627Z,13.10
2018-05-18T00:28:40.948Z,13.10
2018-05-18T00:31:08.029Z,13.00
2018-05-18T00:33:34.377Z,13.00
2018-05-18T00:36:00.745Z,13.10
2018-05-18T00:38:27.092Z,13.10
2018-05-18T00:40:53.413Z,13.10
2018-05-18T00:43:20.469Z,13.10
2018-05-18T00:45:46.823Z,13.10
2018-05-18T00:48:13.415Z,13.10
2018-05-18T00:50:40.646Z,12.90
2018-05-18T00:53:07.013Z,12.90
2018-05-18T00:55:40.005Z,12.90
2018-05-18T00:58:06.772Z,12.90
2018-05-18T01:00:33.381Z,12.90
2018-05-18T01:02:59.846Z,12.90
2018-05-18T01:05:26.912Z,12.90
2018-05-18T01:07:53.409Z,12.90
2018-05-18T01:10:19.725Z,13.00
2018-05-18T01:12:46.818Z,12.90
2018-05-18T01:15:13.198Z,12.90
2018-05-18T01:17:39.818Z,13.10
2018-05-18T01:20:06.193Z,13.20
2018-05-18T01:22:32.905Z,13.10
2018-05-18T01:24:59.964Z,12.80
2018-05-18T01:27:27.233Z,12.70
2018-05-18T01:29:53.538Z,12.70
2018-05-18T01:32:20.614Z,12.90
2018-05-18T01:34:46.969Z,12.80
2018-05-18T01:37:14.249Z,12.80
2018-05-18T01:39:40.630Z,12.80
2018-05-18T01:42:06.966Z,12.70
2018-05-18T01:44:34.187Z,12.80
2018-05-18T01:47:01.345Z,12.80
2018-05-18T01:49:28.404Z,12.70
2018-05-18T01:51:54.704Z,12.70
2018-05-18T01:54:21.039Z,12.60
2018-05-18T01:56:48.177Z,12.70
2018-05-18T01:59:14.501Z,12.70
2018-05-18T02:01:40.841Z,12.90
2018-05-18T02:04:07.178Z,12.80
2018-05-18T02:06:34.233Z,13.00
2018-05-18T02:09:01.273Z,12.90
2018-05-18T02:11:28.385Z,12.90
2018-05-18T02:13:54.689Z,12.80
2018-05-18T02:16:21.000Z,13.00
2018-05-18T02:18:48.098Z,13.10
2018-05-18T02:21:14.443Z,13.10
2018-05-18T02:23:42.257Z,13.20
2018-05-18T02:26:08.640Z,13.20
2018-05-18T02:28:36.525Z,13.30
2018-05-18T02:31:02.929Z,13.30
2018-05-18T02:33:29.270Z,13.50
2018-05-18T02:35:55.630Z,13.60
2018-05-18T02:38:22.834Z,13.40
2018-05-18T02:40:49.173Z,13.40
2018-05-18T02:43:15.542Z,13.40
2018-05-18T02:45:42.614Z,13.40
2018-05-18T02:48:08.945Z,13.30
2018-05-18T02:50:36.107Z,13.00
2018-05-18T02:53:02.476Z,13.00
2018-05-18T02:55:28.782Z,12.90
2018-05-18T02:57:55.501Z,12.90
2018-05-18T03:00:21.909Z,12.80
2018-05-18T03:02:49.026Z,13.00
2018-05-18T03:05:15.388Z,13.00
2018-05-18T03:07:42.509Z,13.00
2018-05-18T03:10:08.849Z,13.00
2018-05-18T03:12:35.216Z,13.00
2018-05-18T03:15:01.555Z,12.90
2018-05-18T03:17:28.124Z,12.90
2018-05-18T03:19:55.161Z,12.70
2018-05-18T03:22:21.538Z,12.70
2018-05-18T03:24:47.869Z,12.60
2018-05-18T03:27:14.481Z,12.40
2018-05-18T03:29:40.865Z,12.60
2018-05-18T03:32:07.248Z,12.70
2018-05-18T03:34:33.668Z,12.80
2018-05-18T03:37:00.025Z,12.70
2018-05-18T03:39:26.369Z,12.80
2018-05-18T03:41:52.705Z,12.60
2018-05-18T03:44:19.761Z,12.40
2018-05-18T03:46:47.121Z,12.40
2018-05-18T03:49:13.478Z,12.30
2018-05-18T03:51:39.845Z,12.30
2018-05-18T03:54:07.005Z,12.30
2018-05-18T03:56:33.374Z,12.20
2018-05-18T03:58:59.685Z,12.10
2018-05-18T04:01:38.961Z,12.20
2018-05-18T04:04:17.600Z,12.20
2018-05-18T04:06:56.114Z,12.00
2018-05-18T04:09:22.533Z,12.00
2018-05-18T04:11:48.854Z,11.90
2018-05-18T04:14:15.181Z,11.90
2018-05-18T04:16:42.451Z,12.10
2018-05-18T04:19:09.677Z,12.10
2018-05-18T04:21:36.166Z,12.10
2018-05-18T04:24:02.534Z,12.00
2018-05-18T04:26:28.833Z,12.00
2018-05-18T04:28:55.160Z,11.90
2018-05-18T04:31:21.513Z,12.00
2018-05-18T04:33:48.579Z,12.00
2018-05-18T04:36:16.169Z,12.00
2018-05-18T04:38:42.589Z,11.90
2018-05-18T04:41:08.848Z,11.90
2018-05-18T04:43:35.178Z,11.90
2018-05-18T04:46:01.547Z,12.00
2018-05-18T04:48:28.613Z,12.10
2018-05-18T04:50:55.025Z,12.10
2018-05-18T04:53:21.273Z,12.20
2018-05-18T04:55:47.583Z,12.30
2018-05-18T04:58:14.711Z,12.60
2018-05-18T05:00:41.212Z,12.60
2018-05-18T05:03:07.609Z,12.60
2018-05-18T05:05:34.815Z,12.50
2018-05-18T05:08:01.150Z,12.50
2018-05-18T05:10:27.513Z,12.50
2018-05-18T05:12:54.570Z,12.50
2018-05-18T05:15:21.621Z,12.60
2018-05-18T05:17:48.300Z,12.60
2018-05-18T05:20:14.586Z,12.70
2018-05-18T05:22:40.909Z,12.50
2018-05-18T05:25:08.053Z,12.80
2018-05-18T05:27:35.365Z,12.90
2018-05-18T05:30:02.478Z,12.80
2018-05-18T05:32:28.909Z,12.80
2018-05-18T05:34:55.321Z,12.80
2018-05-18T05:37:22.879Z,13.20
2018-05-18T05:39:50.087Z,13.00
2018-05-18T05:42:16.406Z,13.00
2018-05-18T05:44:43.329Z,13.10
2018-05-18T05:47:09.870Z,13.20
2018-05-18T05:49:36.321Z,13.50
2018-05-18T05:52:02.646Z,13.60
2018-05-18T05:54:29.685Z,13.70
2018-05-18T05:56:56.185Z,13.70
2018-05-18T05:59:22.540Z,14.00
2018-05-18T06:01:48.881Z,14.10
2018-05-18T06:04:15.185Z,14.70
2018-05-18T06:06:42.345Z,15.10
2018-05-18T06:09:08.713Z,15.10
2018-05-18T06:11:35.881Z,15.20
2018-05-18T06:14:02.286Z,15.20
2018-05-18T06:16:29.279Z,15.50
2018-05-18T06:18:55.656Z,16.00
2018-05-18T06:21:22.042Z,16.20
2018-05-18T06:23:48.363Z,16.20
2018-05-18T06:26:14.726Z,16.10
2018-05-18T06:28:41.154Z,16.40
2018-05-18T06:31:07.537Z,16.50
2018-05-18T06:33:33.874Z,16.50
2018-05-18T06:36:00.592Z,16.80
2018-05-18T06:38:26.963Z,17.00
2018-05-18T06:40:53.357Z,17.20
2018-05-18T06:43:20.593Z,17.70
2018-05-18T06:45:46.917Z,17.70
2018-05-18T06:48:13.277Z,18.00
2018-05-18T06:50:39.633Z,18.30
2018-05-18T06:53:06.884Z,19.00
2018-05-18T06:55:33.344Z,18.80
2018-05-18T06:58:00.452Z,19.40
2018-05-18T07:00:26.935Z,19.40
2018-05-18T07:02:53.978Z,20.20
2018-05-18T07:05:21.096Z,20.60
2018-05-18T07:07:47.418Z,20.60
2018-05-18T07:10:13.761Z,21.00
2018-05-18T07:12:40.153Z,21.30
2018-05-18T07:15:06.746Z,21.70
2018-05-18T07:17:33.981Z,22.30
2018-05-18T07:20:00.359Z,22.20
2018-05-18T07:22:26.670Z,22.50
2018-05-18T07:24:53.785Z,22.90
2018-05-18T07:27:20.133Z,22.90
2018-05-18T07:29:46.537Z,23.10
2018-05-18T07:32:13.618Z,23.60
2018-05-18T07:34:39.945Z,23.60
2018-05-18T07:37:06.817Z,23.70
2018-05-18T07:39:33.893Z,24.00
2018-05-18T07:42:00.943Z,24.00
2018-05-18T07:44:27.283Z,24.00
2018-05-18T07:46:54.562Z,24.10
2018-05-18T07:49:20.865Z,24.10
2018-05-18T07:51:47.209Z,24.20
2018-05-18T07:54:13.519Z,24.20
2018-05-18T07:56:40.813Z,24.80
2018-05-18T07:59:07.189Z,24.60
2018-05-18T08:01:33.526Z,24.60
2018-05-18T08:04:00.721Z,24.50
2018-05-18T08:06:27.173Z,24.30
2018-05-18T08:08:53.525Z,24.30
2018-05-18T08:11:19.876Z,24.30
2018-05-18T08:13:46.169Z,24.20
2018-05-18T08:16:13.314Z,24.20
2018-05-18T08:18:39.684Z,24.20
2018-05-18T08:21:06.097Z,24.10
2018-05-18T08:23:39.285Z,24.20
2018-05-18T08:26:05.722Z,24.20
2018-05-18T08:28:44.289Z,24.40
2018-05-18T08:31:10.718Z,24.60
2018-05-18T08:33:37.160Z,24.80
2018-05-18T08:36:03.525Z,24.90
2018-05-18T08:38:29.857Z,24.90
2018-05-18T08:40:56.906Z,25.20
2018-05-18T08:43:23.272Z,25.20
2018-05-18T08:45:49.631Z,25.40
2018-05-18T08:48:16.165Z,25.90
2018-05-18T08:50:42.508Z,25.60
2018-05-18T08:53:09.021Z,25.60
2018-05-18T08:55:35.317Z,25.60
2018-05-18T08:58:02.542Z,25.60
2018-05-18T09:00:28.959Z,25.60
2018-05-18T09:02:55.306Z,25.80
2018-05-18T09:05:21.613Z,25.90
2018-05-18T09:07:49.022Z,26.10
2018-05-18T09:10:15.329Z,26.00
2018-05-18T09:12:41.655Z,26.20
2018-05-18T09:15:08.101Z,26.30
2018-05-18T09:17:34.513Z,26.40
2018-05-18T09:20:00.853Z,26.40
2018-05-18T09:22:27.173Z,26.50
2018-05-18T09:24:53.501Z,26.60
2018-05-18T09:27:19.857Z,26.50
2018-05-18T09:29:46.205Z,26.50
2018-05-18T09:32:13.273Z,26.50
2018-05-18T09:34:39.627Z,26.50
2018-05-18T09:37:05.949Z,26.60
2018-05-18T09:39:32.345Z,26.60
2018-05-18T09:41:58.616Z,26.80
2018-05-18T09:44:24.934Z,26.90
2018-05-18T09:46:51.671Z,26.80
2018-05-18T09:49:17.994Z,26.90
2018-05-18T09:51:44.307Z,26.90
2018-05-18T09:54:10.855Z,26.90
2018-05-18T09:56:37.106Z,27.10
2018-05-18T09:59:03.489Z,27.10
2018-05-18T10:01:30.573Z,27.40
2018-05-18T10:03:56.929Z,27.40
2018-05-18T10:06:23.336Z,27.40
2018-05-18T10:08:49.647Z,27.50
2018-05-18T10:11:15.976Z,27.50
2018-05-18T10:13:42.380Z,27.50
2018-05-18T10:16:08.733Z,27.70
2018-05-18T10:18:35.054Z,27.80
2018-05-18T10:21:02.157Z,27.90
2018-05-18T10:23:28.508Z,27.90
2018-05-18T10:25:54.809Z,27.90
2018-05-18T10:28:25.160Z,27.70
2018-05-18T10:30:51.461Z,27.70
2018-05-18T10:33:18.522Z,27.60
2018-05-18T10:35:44.861Z,27.60
2018-05-18T10:38:11.454Z,27.70
2018-05-18T10:40:37.830Z,27.60
2018-05-18T10:43:04.152Z,27.80
2018-05-18T10:45:30.485Z,27.80
2018-05-18T10:47:56.989Z,27.90
2018-05-18T10:50:23.369Z,27.90
2018-05-18T10:52:49.721Z,27.90
2018-05-18T10:55:16.769Z,28.20
2018-05-18T10:57:44.372Z,28.20
2018-05-18T11:00:10.789Z,28.20
2018-05-18T11:02:38.017Z,28.20
2018-05-18T11:05:05.117Z,28.20
2018-05-18T11:07:31.695Z,28.10
2018-05-18T11:09:58.006Z,28.20
2018-05-18T11:12:24.350Z,28.30
2018-05-18T11:14:50.657Z,28.30
2018-05-18T11:17:17.229Z,28.60
2018-05-18T11:19:44.330Z,28.80
2018-05-18T11:22:11.473Z,28.70
2018-05-18T11:24:38.661Z,28.80
2018-05-18T11:27:05.208Z,28.70
2018-05-18T11:29:31.530Z,28.90
2018-05-18T11:31:57.886Z,29.10
2018-05-18T11:34:24.938Z,29.10
2018-05-18T11:36:51.277Z,29.10
2018-05-18T11:39:18.377Z,29.10
2018-05-18T11:41:44.690Z,29.10
2018-05-18T11:44:11.014Z,29.10
2018-05-18T11:46:37.358Z,29.30
2018-05-18T11:49:03.677Z,29.40
2018-05-18T11:51:30.021Z,29.50
2018-05-18T11:53:57.090Z,29.70
2018-05-18T11:56:23.456Z,29.70
2018-05-18T11:58:49.812Z,29.90
2018-05-18T12:01:16.127Z,29.90
2018-05-18T12:03:42.471Z,29.90
2018-05-18T12:06:08.909Z,30.00
2018-05-18T12:08:35.237Z,30.20
2018-05-18T12:11:01.588Z,30.20
2018-05-18T12:13:27.925Z,30.40
2018-05-18T12:15:54.265Z,30.40
2018-05-18T12:18:22.169Z,30.50
2018-05-18T12:20:49.275Z,30.50
2018-05-18T12:23:15.609Z,30.50
2018-05-18T12:25:41.997Z,30.50
2018-05-18T12:28:08.739Z,30.60
2018-05-18T12:30:35.039Z,30.60
2018-05-18T12:33:02.110Z,30.60
2018-05-18T12:35:28.431Z,30.60
2018-05-18T12:37:55.710Z,30.70
2018-05-18T12:40:22.013Z,30.70
2018-05-18T12:42:49.077Z,30.60
2018-05-18T12:45:15.449Z,30.50
2018-05-18T12:47:41.894Z,30.50
2018-05-18T12:50:08.209Z,30.60
2018-05-18T12:52:34.553Z,30.70
2018-05-18T12:55:00.940Z,30.50
2018-05-18T12:57:27.353Z,30.50
2018-05-18T12:59:53.661Z,30.30
2018-05-18T13:02:19.967Z,30.10
2018-05-18T13:04:46.377Z,29.90
2018-05-18T13:07:12.868Z,29.90
2018-05-18T13:09:39.955Z,29.80
2018-05-18T13:12:06.309Z,29.80
2018-05-18T13:14:32.613Z,29.60
2018-05-18T13:16:58.929Z,29.40
2018-05-18T13:19:25.290Z,29.10
2018-05-18T13:21:51.613Z,28.80
2018-05-18T13:24:17.965Z,28.60
2018-05-18T13:26:44.281Z,28.60
2018-05-18T13:29:10.813Z,28.60
2018-05-18T13:31:37.149Z,28.60
2018-05-18T13:34:03.488Z,28.50
2018-05-18T13:36:29.823Z,28.30
2018-05-18T13:38:56.137Z,28.30
2018-05-18T13:41:22.573Z,28.30
2018-05-18T13:43:48.897Z,28.20
2018-05-18T13:46:15.277Z,28.20
2018-05-18T13:48:41.710Z,28.10
2018-05-18T13:51:08.037Z,28.10
2018-05-18T13:53:34.377Z,28.00
2018-05-18T13:56:00.717Z,27.90
2018-05-18T13:58:27.985Z,28.00
2018-05-18T14:00:54.316Z,28.00
2018-05-18T14:03:20.689Z,27.90
2018-05-18T14:05:47.785Z,27.90
2018-05-18T14:08:14.994Z,28.10
2018-05-18T14:10:41.434Z,28.00
2018-05-18T14:13:07.758Z,28.00
2018-05-18T14:15:34.069Z,28.00
2018-05-18T14:18:00.520Z,28.20
2018-05-18T14:20:27.235Z,28.20
2018-05-18T14:22:53.541Z,28.10
2018-05-18T14:25:20.598Z,28.20
2018-05-18T14:27:47.006Z,28.20
2018-05-18T14:30:14.053Z,28.30
2018-05-18T14:32:41.161Z,28.40
2018-05-18T14:35:07.533Z,28.30
2018-05-18T14:37:34.669Z,28.10
2018-05-18T14:40:01.004Z,28.10
2018-05-18T14:42:27.391Z,28.00
2018-05-18T14:44:53.694Z,28.10
2018-05-18T14:47:20.203Z,28.20
2018-05-18T14:49:46.561Z,28.40
2018-05-18T14:52:12.995Z,28.40
2018-05-18T14:54:39.321Z,28.00
2018-05-18T14:57:05.692Z,27.70
2018-05-18T14:59:32.013Z,27.40
2018-05-18T15:01:58.338Z,26.80
2018-05-18T15:04:24.731Z,26.30
2018-05-18T15:06:51.845Z,25.20
2018-05-18T15:09:18.151Z,25.20
2018-05-18T15:11:44.663Z,24.90
2018-05-18T15:14:11.049Z,24.40
2018-05-18T15:16:37.381Z,24.00
2018-05-18T15:19:03.725Z,23.80
2018-05-18T15:21:30.081Z,23.40
2018-05-18T15:23:56.429Z,22.70
2018-05-18T15:26:22.815Z,22.50
2018-05-18T15:28:49.181Z,22.20
2018-05-18T15:31:15.581Z,21.90
2018-05-18T15:33:42.073Z,22.10
2018-05-18T15:36:08.446Z,22.20
2018-05-18T15:38:34.757Z,22.10
2018-05-18T15:41:01.102Z,21.70
2018-05-18T15:43:27.421Z,21.10
2018-05-18T15:45:53.721Z,20.50
2018-05-18T15:48:20.201Z,19.90
2018-05-18T15:50:46.599Z,19.50
2018-05-18T15:53:12.937Z,19.30
2018-05-18T15:55:39.281Z,19.00
2018-05-18T15:58:06.645Z,19.00
2018-05-18T16:00:33.057Z,18.90
2018-05-18T16:02:59.381Z,18.90
2018-05-18T16:05:25.690Z,18.70
2018-05-18T16:07:52.521Z,18.50
2018-05-18T16:10:18.908Z,18.60
2018-05-18T16:12:45.434Z,18.40
2018-05-18T16:15:12.064Z,18.20
2018-05-18T16:17:38.633Z,18.00
2018-05-18T16:20:04.967Z,17.60
2018-05-18T16:22:31.341Z,17.40
2018-05-18T16:24:57.642Z,17.20
2018-05-18T16:27:24.681Z,16.90
2018-05-18T16:29:51.060Z,16.90
2018-05-18T16:32:17.369Z,16.80
2018-05-18T16:34:43.757Z,16.70
2018-05-18T16:37:10.101Z,16.90
2018-05-18T16:39:36.422Z,16.90
2018-05-18T16:42:02.752Z,16.90
2018-05-18T16:44:29.079Z,16.90
2018-05-18T16:46:56.885Z,16.90
2018-05-18T16:49:23.256Z,16.90
2018-05-18T16:51:49.645Z,16.90
2018-05-18T16:54:15.973Z,16.90
2018-05-18T16:56:43.223Z,16.80
2018-05-18T16:59:10.362Z,16.80
2018-05-18T17:01:37.433Z,17.00
2018-05-18T17:04:04.526Z,17.20
2018-05-18T17:06:30.940Z,17.20
2018-05-18T17:08:58.058Z,17.30
2018-05-18T17:11:25.194Z,17.20
2018-05-18T17:13:51.598Z,17.20
2018-05-18T17:16:17.996Z,17.00
2018-05-18T17:18:44.462Z,16.90
2018-05-18T17:21:10.854Z,16.70
2018-05-18T17:23:37.173Z,16.70
2018-05-18T17:26:04.281Z,16.60
2018-05-18T17:28:30.915Z,16.60
2018-05-18T17:30:57.219Z,16.60
2018-05-18T17:33:23.601Z,16.70
2018-05-18T17:35:50.649Z,16.70
2018-05-18T17:38:17.193Z,16.70
2018-05-18T17:40:44.374Z,16.70
2018-05-18T17:43:10.748Z,16.70
2018-05-18T17:45:37.130Z,16.90
2018-05-18T17:48:03.525Z,16.90
2018-05-18T17:50:29.885Z,16.80
2018-05-18T17:52:56.191Z,16.80
2018-05-18T17:55:25.696Z,16.90
2018-05-18T17:57:52.805Z,16.90
2018-05-18T18:00:19.148Z,16.90
2018-05-18T18:02:45.505Z,16.90
2018-05-18T18:05:11.974Z,17.00
2018-05-18T18:07:38.564Z,16.90
2018-05-18T18:10:04.909Z,16.80
2018-05-18T18:12:31.242Z,16.80
2018-05-18T18:14:58.363Z,16.60
2018-05-18T18:17:24.774Z,16.60
2018-05-18T18:19:51.117Z,16.60
2018-05-18T18:22:17.953Z,16.70
2018-05-18T18:24:45.141Z,16.80
2018-05-18T18:27:11.795Z,16.70
2018-05-18T18:29:38.853Z,16.90
2018-05-18T18:32:05.952Z,16.90
2018-05-18T18:34:32.629Z,16.80
2018-05-18T18:36:59.769Z,16.90
2018-05-18T18:39:26.116Z,16.90
2018-05-18T18:41:52.469Z,16.90
2018-05-18T18:44:18.793Z,16.80
2018-05-18T18:46:45.181Z,16.80
2018-05-18T18:49:11.521Z,17.00
2018-05-18T18:51:37.829Z,16.90
2018-05-18T18:54:04.182Z,17.00
2018-05-18T18:56:30.528Z,17.00
2018-05-18T18:58:57.616Z,17.10
2018-05-18T19:01:23.965Z,17.00
2018-05-18T19:03:51.516Z,16.90
2018-05-18T19:06:17.867Z,16.90
2018-05-18T19:08:44.213Z,16.90
2018-05-18T19:11:10.540Z,16.80
2018-05-18T19:13:36.853Z,16.90
2018-05-18T19:16:03.214Z,17.20
2018-05-18T19:18:30.277Z,17.30
2018-05-18T19:20:56.585Z,17.30
2018-05-18T19:23:22.957Z,17.30
2018-05-18T19:25:49.257Z,17.10
2018-05-18T19:28:16.381Z,16.80
2018-05-18T19:30:42.766Z,16.80
2018-05-18T19:33:09.069Z,16.80
2018-05-18T19:35:36.159Z,16.90
2018-05-18T19:38:02.538Z,16.90
2018-05-18T19:40:28.893Z,16.80
2018-05-18T19:42:55.272Z,16.70
2018-05-18T19:45:21.670Z,16.90
2018-05-18T19:47:48.125Z,16.80
2018-05-18T19:50:14.465Z,16.70
2018-05-18T19:52:40.772Z,16.60
2018-05-18T19:55:07.110Z,16.50
2018-05-18T19:57:33.617Z,16.50
2018-05-18T19:59:59.982Z,16.50
2018-05-18T20:02:26.358Z,16.60
2018-05-18T20:04:52.692Z,16.60
2018-05-18T20:07:19.141Z,16.50
2018-05-18T20:09:46.197Z,16.30
2018-05-18T20:12:13.441Z,16.30
2018-05-18T20:14:39.690Z,16.20
2018-05-18T20:17:06.193Z,16.10
2018-05-18T20:19:32.515Z,16.10
2018-05-18T20:21:58.849Z,16.10
2018-05-18T20:24:25.178Z,16.10
2018-05-18T20:26:51.490Z,16.00
2018-05-18T20:29:17.849Z,15.90
2018-05-18T20:31:44.998Z,15.70
2018-05-18T20:34:11.404Z,15.70
2018-05-18T20:36:38.473Z,15.70
2018-05-18T20:39:04.821Z,15.70
2018-05-18T20:41:31.165Z,15.70
2018-05-18T20:43:57.476Z,15.60
2018-05-18T20:46:24.613Z,15.50
2018-05-18T20:48:50.962Z,15.40
2018-05-18T20:51:18.153Z,15.30
2018-05-18T20:53:44.558Z,15.30
2018-05-18T20:56:11.605Z,15.30
2018-05-18T20:58:38.010Z,15.20
2018-05-18T21:01:04.273Z,15.20
2018-05-18T21:03:30.664Z,15.20
2018-05-18T21:05:56.900Z,15.10
2018-05-18T21:08:23.553Z,15.10
2018-05-18T21:10:50.616Z,15.00
2018-05-18T21:13:16.981Z,15.00
2018-05-18T21:15:43.345Z,14.90
2018-05-18T21:18:09.882Z,14.90
2018-05-18T21:20:36.197Z,14.90
2018-05-18T21:23:02.511Z,14.80
2018-05-18T21:25:28.833Z,14.70
2018-05-18T21:27:55.441Z,14.70
2018-05-18T21:30:22.498Z,14.70
2018-05-18T21:32:48.878Z,14.70
2018-05-18T21:35:15.189Z,14.60
2018-05-18T21:37:41.529Z,14.50
2018-05-18T21:40:07.870Z,14.50
2018-05-18T21:42:34.184Z,14.60
2018-05-18T21:45:00.517Z,14.50
2018-05-18T21:47:27.093Z,14.50
2018-05-18T21:49:54.138Z,14.50
2018-05-18T21:52:21.213Z,14.50
2018-05-18T21:54:47.581Z,14.40
2018-05-18T21:57:14.277Z,14.40
2018-05-18T21:59:41.321Z,14.30
2018-05-18T22:02:08.416Z,14.30
2018-05-18T22:04:34.764Z,14.20
2018-05-18T22:07:01.185Z,14.20
2018-05-18T22:09:27.569Z,14.40
2018-05-18T22:11:54.629Z,14.30
2018-05-18T22:14:20.977Z,14.30
2018-05-18T22:16:47.339Z,14.30
2018-05-18T22:19:13.795Z,14.30
2018-05-18T22:21:40.857Z,14.20
2018-05-18T22:24:07.927Z,14.10
2018-05-18T22:26:34.264Z,14.10
2018-05-18T22:29:00.579Z,14.20
2018-05-18T22:31:26.890Z,14.20
2018-05-18T22:33:53.997Z,14.20
2018-05-18T22:36:20.329Z,14.20
2018-05-18T22:38:46.749Z,14.20
2018-05-18T22:41:13.068Z,14.30
2018-05-18T22:43:39.388Z,14.30
2018-05-18T22:46:05.693Z,14.20
2018-05-18T22:48:32.793Z,14.20
2018-05-18T22:50:59.113Z,14.20
2018-05-18T22:53:25.449Z,14.10
2018-05-18T22:55:51.802Z,14.20
2018-05-18T22:58:18.153Z,14.00
2018-05-18T23:00:44.560Z,14.00
2018-05-18T23:03:10.917Z,14.00
2018-05-18T23:05:37.297Z,14.10
2018-05-18T23:08:03.669Z,14.10
2018-05-18T23:10:30.009Z,14.00
2018-05-18T23:12:56.349Z,13.80
2018-05-18T23:15:23.573Z,13.80
2018-05-18T23:17:50.192Z,13.70
2018-05-18T23:20:16.569Z,14.00
2018-05-18T23:22:43.658Z,14.00
2018-05-18T23:25:09.967Z,14.00
2018-05-18T23:27:36.614Z,13.90
2018-05-18T23:30:02.982Z,13.90
2018-05-18T23:32:29.298Z,13.80
2018-05-18T23:34:55.641Z,13.80
2018-05-18T23:37:22.162Z,13.70
2018-05-18T23:39:48.693Z,13.90
2018-05-18T23:42:15.034Z,13.90
2018-05-18T23:44:41.341Z,13.80
2018-05-18T23:47:07.674Z,13.90
2018-05-18T23:49:34.014Z,13.70
2018-05-18T23:52:00.337Z,13.50
2018-05-18T23:54:27.418Z,13.40
2018-05-18T23:56:53.740Z,13.40
2018-05-18T23:59:20.058Z,13.40
